Yulee, Florida
Current Conditions -  °F | °C
As of 7:55 PM on Wednesday 22 Oct 2014 (Local Time) from KFHB Reporting Station
Clear Clear  
Wind Chill: 68°   Ceiling: Unl
Heat Index: 68°   Visibility: 10mi
Dew Point: 54°   Wind: 0mph
Humidity: 60%   Direction: NA
Pressure: 30.02"   Gusts: NA
Location:  30.64°N, 81.61°W
Report Text: KFHB 222355Z AUTO 00000KT 10SM CLR 20/12 A3002 RMK AO1
Loading
Personal Weather Stations






























Interactive Weather Map
Tropical Storm Tracking
New forecast layout! Learn more

10-Day Weather Forecast

Advertisements
Track Severe Weather on mobile